Nearby METAR Reports

 

K27K - Georgetown, Kentucky, USA
Distance from station: NE 1mi, 3km
Updated: Mon, 17-Jun-2019 6:35pm EDT
Mostly cloudy
Mostly cloudy
 Wind from SSW
Wind: SSW 10 mph , 17 km/h
Temperature: 79°F , 26°C
Dew Point: 70°F , 21°C
Humidity: 74%
Barometer: 29.96 inHg , 1014.6 hPa
Clouds: Mostly cloudy
Visibility: 10 miles , 16 km
Cloud details: Partly cloudy 3800 ft
Partly cloudy 4900 ft
Mostly cloudy 11000 ft
2019/06/17 22:35 K27K 172235Z AUTO 20009KT 10SM SCT038 SCT049 BKN110 26/21 A2996 RMK AO1
KLEX - Lexington, Kentucky, USA
Distance from station: SE 25mi, 38km
Updated: Mon, 17-Jun-2019 6:33pm EDT
Few Clouds
Few Clouds
 Wind from SSW
Wind: SSW 6 mph , 9 km/h
Temperature: 77°F , 25°C
Dew Point: 68°F , 20°C
Humidity: 74%
Barometer: 29.96 inHg , 1014.6 hPa
Clouds: Few Clouds
Visibility: 10 miles , 16 km
Cloud details: Few Clouds 1400 ft
Few Clouds 11000 ft
2019/06/17 22:33 KLEX 172233Z 20005KT 10SM FEW014 FEW110 25/20 A2996 RMK AO2 RAE19 TSB2156E18 P0006 T02500200
 
KFFT - Frankfort, Kentucky, USA
Distance from station: WNW 24mi, 38km
Updated: Mon, 17-Jun-2019 5:53pm EDT
Mostly cloudy
Mostly cloudy
 Wind from SSE
Wind: SSE 14 mph , 22 km/h, Gust: 21 mph , 33 km/h
Temperature: 82°F , 28°C
Heat Index: 86°F , 30°C
Dew Point: 72°F , 22°C
Humidity: 70%
Barometer: 29.94 inHg , 1013.9 hPa
Clouds: Mostly cloudy
Visibility: 10 miles , 16 km
Cloud details: Few Clouds 2900 ft
Mostly cloudy 12000 ft
2019/06/17 21:53 KFFT 172153Z AUTO 16012G18KT 10SM FEW029 BKN120 28/22 A2994 RMK AO2 LTG DSNT SE AND S RAB27E41 SLP130 P0000 T02780222
KIOB - Mount Sterling, Kentucky, USA
Distance from station: E 28mi, 46km
Updated: Mon, 17-Jun-2019 6:15pm EDT
Clear
Clear
 Wind from SW
Wind: SW 7 mph , 11 km/h
Temperature: 81°F , 27°C
Heat Index: 85°F , 29°C
Dew Point: 70°F , 21°C
Humidity: 70%
Barometer: 29.99 inHg , 1015.6 hPa
Clouds: Clear
Visibility: 10 miles , 16 km
2019/06/17 22:15 KIOB 172215Z AUTO 22006KT 10SM CLR 27/21 A2999 RMK AO2
 
KDVK - Danville, Kentucky, USA
Distance from station: SSW 35mi, 56km
Updated: Mon, 17-Jun-2019 6:15pm EDT
Mostly cloudy
Mostly cloudy
 Wind from WSW
Wind: WSW 5 mph , 7 km/h
Temperature: 84°F , 29°C
Heat Index: 87°F , 31°C
Dew Point: 68°F , 20°C
Humidity: 58%
Barometer: 29.98 inHg , 1015.2 hPa
Clouds: Mostly cloudy
Visibility: 10 miles , 16 km
Cloud details: Mostly cloudy 3800 ft
Mostly cloudy 11000 ft
2019/06/17 22:15 KDVK 172215Z AUTO 24004KT 10SM BKN038 BKN110 29/20 A2998 RMK AO2
K6I2 - Springfield, Kentucky, USA
Distance from station: SW 49mi, 80km
Updated: Mon, 17-Jun-2019 6:10pm EDT
Few Clouds
Few Clouds
 Wind from S
Wind: S 7 mph , 11 km/h
Temperature: 82°F , 28°C
Heat Index: 86°F , 30°C
Dew Point: 72°F , 22°C
Humidity: 70%
Barometer: 29.96 inHg , 1014.6 hPa
Clouds: Few Clouds
Visibility: 9 miles , 14 km
Cloud details: Few Clouds 3600 ft
Few Clouds 10000 ft
2019/06/17 22:10 K6I2 172210Z AUTO 19006KT 9SM FEW036 FEW100 28/22 A2996 RMK AO2
 
KSYM - Morehead, Kentucky, USA
Distance from station: ENE 51mi, 83km
Updated: Mon, 17-Jun-2019 6:20pm EDT
Few Clouds
Few Clouds
 Wind from SSE
Wind: SSE 7 mph , 11 km/h, Gust: 15 mph , 24 km/h
Temperature: 77°F , 25°C
Dew Point: 68°F , 20°C
Humidity: 74%
Barometer: 29.99 inHg , 1015.6 hPa
Clouds: Few Clouds
Visibility: 10 miles , 16 km
Cloud details: Few Clouds 3000 ft
Few Clouds 3700 ft
2019/06/17 22:20 KSYM 172220Z AUTO 16006G13KT 10SM FEW030 FEW037 25/20 A2999 RMK AO2
KFGX - Flemingsburg, Kentucky, USA
Distance from station: NE 54mi, 87km
Updated: Mon, 17-Jun-2019 6:15pm EDT
Clear
Clear
 Wind from SSW
Wind: SSW 6 mph , 9 km/h
Temperature: 81°F , 27°C
Heat Index: 85°F , 29°C
Dew Point: 70°F , 21°C
Humidity: 70%
Barometer: 29.97 inHg , 1014.9 hPa
Clouds: Clear
Visibility: 10 miles , 16 km
2019/06/17 22:15 KFGX 172215Z AUTO 20005KT 10SM CLR 27/21 A2997 RMK AO2 T02710214
 
KLOU - Louisville/Bowmn, Kentucky, USA
Distance from station: W 64mi, 104km
Updated: Mon, 17-Jun-2019 5:53pm EDT
Clear
Clear
 Wind from SSE
Wind: SSE 13 mph , 20 km/h
Temperature: 82°F , 28°C
Heat Index: 86°F , 30°C
Dew Point: 70°F , 21°C
Humidity: 66%
Barometer: 29.90 inHg , 1012.5 hPa
Clouds: Clear
Visibility: 10 miles , 16 km
2019/06/17 21:53 KLOU 172153Z 16011KT 10SM CLR 28/21 A2990 RMK AO2 LTG DSNT N AND NW SLP119 T02830206
KSDF - Louisville, Kentucky, USA
Distance from station: W 68mi, 109km
Updated: Mon, 17-Jun-2019 5:56pm EDT
Mostly cloudy
Mostly cloudy
 Wind from S
Wind: S 9 mph , 15 km/h
Temperature: 84°F , 29°C
Heat Index: 88°F , 31°C
Dew Point: 70°F , 21°C
Humidity: 62%
Barometer: 29.90 inHg , 1012.5 hPa
Clouds: Mostly cloudy
Visibility: 10 miles , 16 km
Cloud details: Few Clouds 4000 ft
Few Clouds 15000 ft
Mostly cloudy 20000 ft
Mostly cloudy 25000 ft
2019/06/17 21:56 KSDF 172156Z 18008KT 10SM FEW040 FEW150 BKN200 BKN250 29/21 A2990 RMK AO2 LTG DSNT N SLP119 CB DSNT N AND E AND S T02890206
 
KSME - Somerset, Kentucky, USA
Distance from station: S 69mi, 111km
Updated: Mon, 17-Jun-2019 6:15pm EDT
Partly cloudy
Partly cloudy
 Wind from SW
Wind: SW 5 mph , 7 km/h
Temperature: 82°F , 28°C
Heat Index: 83°F , 28°C
Dew Point: 63°F , 17°C
Humidity: 51%
Barometer: 30.00 inHg , 1015.9 hPa
Clouds: Partly cloudy
Visibility: 10 miles , 16 km
Cloud details: Partly cloudy 6500 ft
2019/06/17 22:15 KSME 172215Z AUTO 22004KT 10SM SCT065 28/17 A3000 RMK AO2
KCVG - Covington, Kentucky, USA
Distance from station: N 70mi, 113km
Updated: Mon, 17-Jun-2019 5:52pm EDT
Overcast
Overcast
 Wind from SSW
Wind: SSW 9 mph , 15 km/h
Temperature: 82°F , 28°C
Heat Index: 85°F , 29°C
Dew Point: 68°F , 20°C
Humidity: 62%
Barometer: 29.94 inHg , 1013.9 hPa
Clouds: Overcast
Visibility: 10 miles , 16 km
Cloud details: Few Clouds 2400 ft
Partly cloudy 14000 ft
Partly cloudy 20000 ft
Overcast 25000 ft
2019/06/17 21:52 KCVG 172152Z 20008KT 10SM FEW024 SCT140 SCT200 OVC250 28/20 A2994 RMK AO2 SLP127 FEW V SCT T02830200
 
KLOZ - London, Kentucky, USA
Distance from station: SSE 70mi, 113km
Updated: Mon, 17-Jun-2019 6:31pm EDT
Light rain, Mist, Mostly cloudy
Light rain, Mist, Mostly cloudy
 Wind from varies
Wind: varies 3 mph , 6 km/h
Temperature: 72°F , 22°C
Dew Point: 72°F , 22°C
Humidity: 100%
Barometer: 30.02 inHg , 1016.6 hPa
Summary: Light rain, Mist
Clouds: Mostly cloudy
Visibility: 2 miles , 3 km
Cloud details: Few Clouds 2000 ft
Mostly cloudy 3600 ft
Mostly cloudy 6000 ft
2019/06/17 22:31 KLOZ 172231Z AUTO VRB03KT 2SM -RA BR FEW020 BKN036 BKN060 22/22 A3002 RMK AO2 RAE04B11 TSB01E16 P0022 T02220217
KJKL - Noctor/Jackson, Kentucky, USA
Distance from station: ESE 72mi, 115km
Updated: Mon, 17-Jun-2019 6:12pm EDT
Light rain, Mist, Overcast
Light rain, Mist, Overcast
 Wind from SE
Wind: SE 5 mph , 7 km/h
Temperature: 70°F , 21°C
Dew Point: 70°F , 21°C
Humidity: 100%
Barometer: 30.03 inHg , 1016.9 hPa
Summary: Light rain, Mist
Clouds: Overcast
Visibility: 6 miles , 10 km
Cloud details: Few Clouds 200 ft
Mostly cloudy 9000 ft
Overcast 11000 ft
2019/06/17 22:12 KJKL 172212Z AUTO 14004KT 6SM -RA BR FEW002 BKN090 OVC110 21/21 A3003 RMK AO2 P0001 T02060206
 
KIMS - Madison, Indiana, USA
Distance from station: NW 72mi, 116km
Updated: Mon, 17-Jun-2019 6:15pm EDT
Mostly cloudy
Mostly cloudy
 Wind from calm
Wind: Calm
Temperature: 77°F , 25°C
Dew Point: 73°F , 23°C
Humidity: 89%
Barometer: 29.93 inHg , 1013.5 hPa
Clouds: Mostly cloudy
Visibility: 4 miles , 6 km
Cloud details: Partly cloudy 1600 ft
Partly cloudy 2500 ft
Mostly cloudy 4200 ft
2019/06/17 22:15 KIMS 172215Z AUTO 00000KT 4SM SCT016 SCT025 BKN042 25/23 A2993 RMK AO1
KLUK - Cincinnat/Lunken, Ohio, USA
Distance from station: N 73mi, 118km
Updated: Mon, 17-Jun-2019 5:53pm EDT
Partly cloudy
Partly cloudy
 Wind from S
Wind: S 9 mph , 15 km/h
Temperature: 81°F , 27°C
Heat Index: 85°F , 29°C
Dew Point: 70°F , 21°C
Humidity: 70%
Barometer: 29.92 inHg , 1013.2 hPa
Clouds: Partly cloudy
Visibility: 10 miles , 16 km
Cloud details: Partly cloudy 3000 ft
2019/06/17 21:53 KLUK 172153Z 19008KT 10SM SCT030 27/21 A2992 RMK AO2 LTG DSNT NE SLP128 T02720211
 
KI69 - Batavia, Ohio, USA
Distance from station: NNE 74mi, 119km
Updated: Mon, 17-Jun-2019 6:15pm EDT
Clear
Clear
 Wind from S
Wind: S 5 mph , 7 km/h
Temperature: 81°F , 27°C
Heat Index: 85°F , 29°C
Dew Point: 72°F , 22°C
Humidity: 74%
Barometer: 29.94 inHg , 1013.9 hPa
Clouds: Clear
Visibility: 10 miles , 16 km
2019/06/17 22:15 KI69 172215Z AUTO 17004KT 10SM CLR 27/22 A2994 RMK AO2 T02650219